Time;durP1;ratioP1;P1;durP2;ratioP2;P2;SDS_P1;SDS_P2;PMS_P1;PMS_P2;Temp;Humidity;BMP_temperature;BMP_pressure;BME280_temperature;BME280_humidity;BME280_pressure;Samples;Min_cycle;Max_cycle;Signal;HPM_P1;HPM_P2
2021/06/18 00:02:15;;;;;;;8.43;7.60;;;23.20;98.40;;;;;;5030726;28;20451;-58
2021/06/18 00:04:42;;;;;;;8.60;6.80;;;23.20;98.40;;;;;;5031041;28;20465;-58
2021/06/18 00:07:09;;;;;;;8.37;7.40;;;23.30;98.70;;;;;;5033748;28;20583;-58
2021/06/18 00:09:36;;;;;;;7.87;7.07;;;23.30;98.40;;;;;;5034117;28;20445;-58
2021/06/18 00:12:04;;;;;;;10.07;6.90;;;23.30;98.50;;;;;;5034174;28;20484;-59
2021/06/18 00:14:31;;;;;;;11.00;7.10;;;23.40;98.40;;;;;;5030045;28;20476;-58
2021/06/18 00:16:59;;;;;;;7.87;7.17;;;23.40;98.50;;;;;;5034635;28;20499;-58
2021/06/18 00:19:26;;;;;;;8.10;6.37;;;23.40;98.30;;;;;;5024056;28;20457;-59
2021/06/18 00:21:53;;;;;;;8.00;7.20;;;23.40;98.30;;;;;;5032910;28;20977;-59
2021/06/18 00:24:20;;;;;;;7.53;6.93;;;23.50;98.20;;;;;;5033799;28;20468;-58
2021/06/18 00:26:47;;;;;;;9.27;6.97;;;23.40;98.20;;;;;;5033516;28;20479;-60
2021/06/18 00:29:14;;;;;;;7.53;6.60;;;23.30;98.10;;;;;;5014503;28;20457;-58
2021/06/18 00:31:42;;;;;;;8.23;7.17;;;23.30;98.20;;;;;;5019845;28;20460;-59
2021/06/18 00:34:10;;;;;;;8.10;6.80;;;23.40;98.30;;;;;;5034057;28;20526;-59
2021/06/18 00:36:37;;;;;;;7.83;7.07;;;23.40;98.10;;;;;;5034068;28;20461;-58
2021/06/18 00:39:05;;;;;;;8.30;7.53;;;23.40;98.30;;;;;;5024000;28;20449;-59
2021/06/18 00:41:32;;;;;;;13.77;7.43;;;23.40;97.90;;;;;;5028332;28;20448;-58
2021/06/18 00:43:59;;;;;;;8.23;7.43;;;23.40;98.00;;;;;;5034047;28;20468;-59
2021/06/18 00:46:29;;;;;;;8.63;7.17;;;23.40;98.10;;;;;;5033361;28;20460;-58
2021/06/18 00:48:57;;;;;;;9.97;7.33;;;23.60;97.80;;;;;;5028174;28;20511;-60
2021/06/18 00:51:25;;;;;;;12.23;8.07;;;23.50;97.70;;;;;;5013849;28;20450;-59
2021/06/18 00:53:54;;;;;;;8.67;7.87;;;23.60;98.00;;;;;;5029013;28;20488;-59
2021/06/18 00:56:21;;;;;;;9.53;8.57;;;23.50;97.60;;;;;;5022820;28;20489;-59
2021/06/18 00:58:49;;;;;;;8.80;7.97;;;23.50;97.80;;;;;;5027508;28;20452;-60
2021/06/18 01:01:16;;;;;;;8.23;7.43;;;23.50;97.60;;;;;;5026392;28;20883;-59
2021/06/18 01:03:43;;;;;;;9.27;8.30;;;23.60;97.50;;;;;;5014177;28;20508;-59
2021/06/18 01:06:12;;;;;;;10.30;8.50;;;23.50;97.60;;;;;;5027574;28;20954;-59
2021/06/18 01:08:45;;;;;;;7.70;6.97;;;23.50;97.40;;;;;;5031400;28;20449;-60
2021/06/18 01:11:18;;;;;;;8.37;7.60;;;23.50;97.70;;;;;;5013844;28;20446;-59
2021/06/18 01:13:52;;;;;;;8.10;7.20;;;23.40;97.20;;;;;;5013554;28;20547;-59
2021/06/18 01:16:25;;;;;;;8.00;7.20;;;23.40;97.40;;;;;;5013918;28;20426;-60
2021/06/18 01:18:59;;;;;;;7.73;6.93;;;23.40;97.20;;;;;;5012937;28;20460;-58
2021/06/18 01:21:35;;;;;;;7.10;6.50;;;23.30;97.40;;;;;;5023835;28;20806;-59
2021/06/18 01:24:35;;;;;;;7.53;6.83;;;23.40;97.60;;;;;;5028650;28;20896;-59
2021/06/18 01:27:15;;;;;;;7.97;7.27;;;23.30;97.90;;;;;;5029500;28;20453;-59
2021/06/18 01:29:47;;;;;;;8.10;7.30;;;23.30;97.90;;;;;;5013290;28;20453;-58
2021/06/18 01:32:19;;;;;;;7.23;6.53;;;23.30;98.10;;;;;;5032156;28;20459;-59
2021/06/18 01:34:47;;;;;;;7.63;6.93;;;23.20;98.20;;;;;;5023840;28;20512;-58
2021/06/18 01:37:17;;;;;;;9.33;7.30;;;23.30;98.10;;;;;;5014185;28;20460;-59
2021/06/18 01:39:47;;;;;;;7.73;6.93;;;23.10;98.60;;;;;;5013109;28;20962;-59
2021/06/18 01:42:16;;;;;;;8.43;7.17;;;23.00;98.50;;;;;;5012811;28;20827;-59
2021/06/18 01:44:45;;;;;;;8.10;7.30;;;23.00;98.50;;;;;;5030602;28;20473;-59
2021/06/18 01:47:14;;;;;;;8.80;7.50;;;23.00;98.40;;;;;;5032000;28;20448;-59
2021/06/18 01:49:44;;;;;;;9.80;6.70;;;23.00;98.10;;;;;;5032691;28;21000;-59
2021/06/18 01:52:13;;;;;;;7.37;6.70;;;22.80;98.70;;;;;;5031164;28;20460;-58
2021/06/18 01:54:43;;;;;;;8.23;7.43;;;22.90;98.40;;;;;;5032729;28;20819;-59
2021/06/18 01:57:12;;;;;;;9.23;7.80;;;22.70;98.80;;;;;;5024789;28;20450;-58
2021/06/18 01:59:41;;;;;;;8.03;7.30;;;22.70;98.70;;;;;;5016136;28;20534;-58
2021/06/18 02:02:10;;;;;;;8.50;7.60;;;22.80;99.00;;;;;;5031878;28;20449;-60
2021/06/18 02:04:42;;;;;;;9.63;7.63;;;22.80;98.70;;;;;;5031985;28;20475;-59
2021/06/18 02:07:12;;;;;;;8.40;7.60;;;22.90;98.60;;;;;;5025395;28;20454;-58
2021/06/18 02:09:41;;;;;;;7.00;6.40;;;23.00;98.60;;;;;;5012739;28;20449;-59
2021/06/18 02:12:09;;;;;;;8.60;7.60;;;23.00;98.80;;;;;;5012267;28;20461;-59
2021/06/18 02:14:38;;;;;;;8.37;6.90;;;23.00;99.00;;;;;;5012495;28;20523;-59
2021/06/18 02:17:06;;;;;;;7.57;6.97;;;23.00;98.90;;;;;;5016624;28;20981;-58
2021/06/18 02:19:38;;;;;;;7.93;6.90;;;23.00;98.90;;;;;;5032409;28;20460;-58
2021/06/18 02:22:08;;;;;;;8.43;7.17;;;22.90;99.80;;;;;;5022201;28;20454;-59
2021/06/18 02:24:36;;;;;;;9.20;8.13;;;22.70;99.70;;;;;;5022576;28;20465;-58
2021/06/18 02:27:06;;;;;;;10.37;8.37;;;22.60;99.90;;;;;;5014721;28;20963;-59
2021/06/18 02:29:33;;;;;;;14.67;7.80;;;22.50;99.90;;;;;;5015710;28;20502;-58
2021/06/18 02:32:02;;;;;;;8.60;7.80;;;22.40;99.90;;;;;;5029195;28;20452;-58
2021/06/18 02:34:29;;;;;;;9.47;7.50;;;22.40;99.90;;;;;;5045396;22;20998;-52
2021/06/18 02:36:58;;;;;;;8.30;7.50;;;22.20;99.90;;;;;;5011703;28;20580;-51
2021/06/18 02:39:25;;;;;;;9.10;7.90;;;22.10;99.90;;;;;;5012037;28;20449;-52
2021/06/18 02:41:52;;;;;;;8.23;7.10;;;22.10;99.90;;;;;;5011723;28;20457;-52
2021/06/18 02:44:19;;;;;;;8.27;7.10;;;21.90;99.90;;;;;;5011953;28;21147;-52
2021/06/18 02:46:52;;;;;;;10.10;7.77;;;21.80;99.90;;;;;;4999368;28;20451;-51
2021/06/18 02:49:24;;;;;;;7.93;7.20;;;21.90;99.90;;;;;;4991815;28;20835;-51
2021/06/18 02:51:58;;;;;;;9.17;7.00;;;21.90;99.90;;;;;;4991785;28;20454;-52
2021/06/18 02:54:32;;;;;;;8.30;7.43;;;21.90;99.90;;;;;;4991709;28;20999;-52
2021/06/18 02:57:02;;;;;;;8.07;7.10;;;21.70;99.90;;;;;;4992514;28;20465;-52
2021/06/18 02:59:32;;;;;;;9.93;7.17;;;21.70;99.90;;;;;;4992707;28;20439;-51
2021/06/18 03:02:01;;;;;;;7.40;6.67;;;21.80;99.90;;;;;;4992143;28;20537;-52
2021/06/18 03:04:32;;;;;;;7.77;6.97;;;21.70;99.90;;;;;;4991744;28;20532;-52
2021/06/18 03:07:03;;;;;;;7.97;7.23;;;21.60;99.90;;;;;;4991879;28;20450;-51
2021/06/18 03:09:35;;;;;;;10.23;7.27;;;21.50;99.90;;;;;;4992219;28;20969;-51
2021/06/18 03:12:05;;;;;;;8.20;7.30;;;21.30;99.90;;;;;;4991956;28;20458;-52
2021/06/18 03:14:36;;;;;;;8.40;7.50;;;21.30;99.90;;;;;;4987653;28;20486;-51
2021/06/18 03:17:06;;;;;;;8.17;7.47;;;21.40;99.90;;;;;;4991347;28;20455;-52
2021/06/18 03:19:38;;;;;;;8.03;6.60;;;21.50;99.90;;;;;;4991970;28;20494;-51
2021/06/18 03:22:08;;;;;;;7.93;7.23;;;21.60;99.90;;;;;;4992004;28;20501;-52
2021/06/18 03:24:37;;;;;;;9.63;7.37;;;21.60;99.90;;;;;;4991481;28;20521;-51
2021/06/18 03:27:05;;;;;;;10.43;7.90;;;21.60;99.90;;;;;;4991443;28;20524;-51
2021/06/18 03:29:33;;;;;;;10.30;7.43;;;21.60;99.90;;;;;;4991416;28;20497;-52
2021/06/18 03:32:02;;;;;;;9.37;7.60;;;21.50;99.90;;;;;;4991269;28;20517;-52
2021/06/18 03:34:29;;;;;;;8.67;7.30;;;21.60;99.90;;;;;;4988684;28;20536;-51
2021/06/18 03:36:58;;;;;;;8.90;8.00;;;21.60;99.90;;;;;;4972454;28;20880;-52
2021/06/18 03:39:26;;;;;;;8.33;7.53;;;21.50;99.90;;;;;;4987134;28;20504;-52
2021/06/18 03:41:55;;;;;;;8.43;7.57;;;21.50;99.90;;;;;;4993868;28;20454;-51
2021/06/18 03:44:23;;;;;;;11.60;8.07;;;21.50;99.90;;;;;;4995581;28;20474;-51
2021/06/18 03:46:52;;;;;;;8.60;7.70;;;21.50;99.90;;;;;;4995524;28;20512;-52
2021/06/18 03:49:19;;;;;;;8.77;7.60;;;21.40;99.90;;;;;;4995323;28;20446;-52
2021/06/18 03:51:46;;;;;;;10.17;7.80;;;21.50;99.90;;;;;;4995204;28;20450;-52
2021/06/18 03:54:13;;;;;;;7.93;7.20;;;21.50;99.90;;;;;;4994797;28;20547;-51
2021/06/18 03:56:47;;;;;;;8.90;8.00;;;21.50;99.90;;;;;;4979663;28;20450;-52
2021/06/18 03:59:17;;;;;;;8.83;7.23;;;21.60;99.90;;;;;;4992592;28;20536;-52
2021/06/18 04:01:45;;;;;;;10.03;7.93;;;21.50;99.90;;;;;;4995127;28;20465;-51
2021/06/18 04:04:12;;;;;;;7.97;7.17;;;21.60;99.90;;;;;;4995203;28;20517;-52
2021/06/18 04:06:40;;;;;;;9.53;7.67;;;21.50;99.90;;;;;;4996198;28;20449;-52
2021/06/18 04:09:08;;;;;;;11.80;8.23;;;21.60;99.90;;;;;;5013689;28;20496;-51
2021/06/18 04:11:36;;;;;;;10.37;7.47;;;21.70;99.90;;;;;;5014999;28;20537;-51
2021/06/18 04:14:04;;;;;;;8.57;7.47;;;21.70;99.90;;;;;;5007800;28;20485;-51
2021/06/18 04:16:36;;;;;;;9.07;7.50;;;21.80;99.90;;;;;;5010950;28;20450;-52
2021/06/18 04:19:03;;;;;;;8.00;7.30;;;21.80;99.90;;;;;;4994163;28;20454;-52
2021/06/18 04:21:34;;;;;;;8.20;7.40;;;21.80;99.90;;;;;;4994595;28;20457;-52
2021/06/18 04:24:01;;;;;;;8.13;7.33;;;21.90;99.90;;;;;;4993599;28;20857;-51
2021/06/18 04:26:28;;;;;;;8.60;7.77;;;21.90;99.90;;;;;;4994874;28;20454;-52
2021/06/18 04:28:56;;;;;;;11.00;7.40;;;22.00;99.90;;;;;;4994681;28;20948;-52
2021/06/18 04:31:23;;;;;;;8.67;7.67;;;22.10;99.90;;;;;;4994368;28;20552;-52
2021/06/18 04:33:51;;;;;;;10.03;8.47;;;22.20;99.90;;;;;;4994234;28;22681;-52
2021/06/18 04:36:18;;;;;;;8.23;7.43;;;22.30;99.90;;;;;;4987407;28;20451;-52
2021/06/18 04:38:45;;;;;;;8.47;7.57;;;22.30;99.90;;;;;;4982662;28;20455;-52
2021/06/18 04:41:12;;;;;;;8.70;7.80;;;22.40;99.90;;;;;;4984000;28;20450;-52
2021/06/18 04:43:39;;;;;;;9.63;8.60;;;22.50;99.90;;;;;;4994306;28;20446;-52
2021/06/18 04:46:06;;;;;;;10.30;8.13;;;22.60;99.90;;;;;;4994413;28;20454;-52
2021/06/18 04:48:35;;;;;;;10.87;8.10;;;22.60;99.90;;;;;;4983466;28;20534;-52
2021/06/18 04:51:04;;;;;;;8.33;7.50;;;22.80;99.90;;;;;;4975416;28;20455;-52
2021/06/18 04:53:32;;;;;;;10.63;9.17;;;22.90;99.90;;;;;;4979475;28;20482;-52
2021/06/18 04:56:01;;;;;;;9.23;8.30;;;23.00;99.90;;;;;;4994293;28;20450;-52
2021/06/18 04:58:28;;;;;;;11.43;8.07;;;22.80;99.90;;;;;;4993286;28;20451;-52
2021/06/18 05:00:56;;;;;;;12.63;9.63;;;22.80;99.90;;;;;;4993889;28;20454;-51
2021/06/18 05:03:23;;;;;;;8.73;7.83;;;22.90;99.90;;;;;;4993976;28;20932;-51
2021/06/18 05:05:50;;;;;;;18.50;8.27;;;23.50;99.90;;;;;;4995670;28;20754;-53
2021/06/18 05:08:19;;;;;;;10.27;9.23;;;24.30;99.90;;;;;;5013680;28;20457;-51
2021/06/18 05:10:46;;;;;;;10.10;8.97;;;24.70;99.90;;;;;;5013730;28;20465;-52
2021/06/18 05:13:13;;;;;;;9.37;8.47;;;25.00;99.90;;;;;;5002775;28;20451;-51
2021/06/18 05:15:40;;;;;;;8.03;7.30;;;26.10;99.90;;;;;;4993517;28;20466;-52
2021/06/18 05:18:07;;;;;;;8.60;7.70;;;27.20;99.90;;;;;;4993896;28;20834;-52
2021/06/18 05:20:34;;;;;;;11.40;8.40;;;27.90;99.90;;;;;;4984204;28;20458;-51
2021/06/18 05:23:01;;;;;;;9.63;7.87;;;28.60;99.90;;;;;;4993468;28;20447;-51
2021/06/18 05:25:29;;;;;;;13.60;7.50;;;29.10;98.30;;;;;;4993844;28;20466;-52
2021/06/18 05:27:56;;;;;;;7.20;6.60;;;29.40;97.30;;;;;;4993374;28;20512;-52
2021/06/18 05:30:24;;;;;;;7.50;6.80;;;29.70;96.70;;;;;;4993750;28;20509;-52
2021/06/18 05:32:51;;;;;;;8.73;7.67;;;30.00;96.20;;;;;;4992525;28;20453;-51
2021/06/18 05:35:18;;;;;;;8.40;7.40;;;30.00;95.20;;;;;;4993362;28;20494;-50
2021/06/18 05:37:45;;;;;;;8.83;7.60;;;30.60;94.80;;;;;;4993738;28;20454;-51
2021/06/18 05:40:13;;;;;;;8.63;7.40;;;31.00;93.80;;;;;;4993328;28;20458;-52
2021/06/18 05:42:41;;;;;;;7.80;7.10;;;31.20;93.00;;;;;;4992666;28;20513;-52
2021/06/18 05:45:10;;;;;;;7.93;7.23;;;31.30;92.80;;;;;;4992611;28;20844;-52
2021/06/18 05:47:37;;;;;;;7.10;6.47;;;31.10;92.70;;;;;;4992463;28;20462;-52
2021/06/18 05:50:07;;;;;;;8.67;6.97;;;31.30;93.20;;;;;;4993355;28;20447;-53
2021/06/18 05:52:34;;;;;;;8.73;6.67;;;32.00;92.50;;;;;;4993036;28;20459;-53
2021/06/18 05:55:01;;;;;;;8.87;7.97;;;32.50;91.30;;;;;;4992718;28;20498;-53
2021/06/18 05:57:28;;;;;;;8.43;7.60;;;32.60;91.00;;;;;;4989703;28;20446;-53
2021/06/18 05:59:56;;;;;;;8.07;7.27;;;32.50;91.20;;;;;;4992102;28;20477;-52
2021/06/18 06:02:24;;;;;;;8.50;7.70;;;32.70;91.10;;;;;;4990652;28;20871;-53
2021/06/18 06:04:51;;;;;;;7.83;7.17;;;32.90;90.50;;;;;;4992689;28;20477;-52
2021/06/18 06:07:18;;;;;;;8.80;8.00;;;32.90;90.30;;;;;;4997032;28;20451;-52
2021/06/18 06:09:45;;;;;;;8.37;7.47;;;32.80;90.30;;;;;;5003809;28;20460;-52
2021/06/18 06:12:12;;;;;;;10.90;7.10;;;32.40;91.10;;;;;;4992418;28;20462;-53
2021/06/18 06:14:39;;;;;;;7.53;6.87;;;32.70;90.10;;;;;;4993682;28;21038;-53
2021/06/18 06:17:08;;;;;;;7.57;6.87;;;32.60;90.30;;;;;;4982289;28;20455;-53
2021/06/18 06:19:35;;;;;;;8.90;8.10;;;32.90;90.50;;;;;;4991969;28;20864;-53
2021/06/18 06:22:03;;;;;;;7.90;7.20;;;33.10;88.60;;;;;;4992154;28;20458;-52
2021/06/18 06:24:30;;;;;;;11.23;7.50;;;32.80;90.10;;;;;;4992281;28;20498;-52
2021/06/18 06:26:57;;;;;;;7.37;6.63;;;32.90;90.50;;;;;;4992447;28;20457;-52
2021/06/18 06:29:24;;;;;;;7.73;7.03;;;32.70;90.80;;;;;;4992088;28;20455;-52
2021/06/18 06:31:51;;;;;;;9.33;7.60;;;33.00;90.10;;;;;;4992227;28;20458;-53
2021/06/18 06:34:19;;;;;;;7.43;6.83;;;32.30;90.40;;;;;;4991548;28;20556;-53
2021/06/18 06:36:46;;;;;;;9.00;7.83;;;32.70;90.20;;;;;;4992296;28;20458;-52
2021/06/18 06:39:14;;;;;;;7.83;7.03;;;33.10;90.60;;;;;;4991677;28;20450;-53
2021/06/18 06:41:41;;;;;;;8.05;7.25;;;33.10;90.80;;;;;;4981038;28;20462;-52
2021/06/18 06:44:09;;;;;;;7.87;7.07;;;31.60;91.60;;;;;;4988167;28;20813;-53
2021/06/18 06:46:41;;;;;;;7.90;7.10;;;31.80;91.10;;;;;;4983361;28;20485;-52
2021/06/18 06:49:08;;;;;;;8.57;7.77;;;31.60;91.60;;;;;;4985195;28;21039;-52
2021/06/18 06:51:38;;;;;;;7.80;7.20;;;31.70;91.30;;;;;;4985315;28;20522;-53
2021/06/18 06:54:06;;;;;;;8.40;7.70;;;32.40;90.40;;;;;;4986837;28;20498;-53
2021/06/18 06:56:33;;;;;;;8.63;7.93;;;33.00;91.00;;;;;;4989918;28;20555;-53
2021/06/18 06:59:00;;;;;;;8.27;7.50;;;33.50;90.00;;;;;;4991751;28;20458;-53
2021/06/18 07:01:27;;;;;;;9.40;8.00;;;33.80;88.70;;;;;;4986222;28;20473;-53
2021/06/18 07:03:54;;;;;;;8.33;7.63;;;33.10;88.30;;;;;;4989571;28;20485;-53
2021/06/18 07:06:21;;;;;;;8.90;8.10;;;32.60;90.10;;;;;;4989456;28;20458;-53
2021/06/18 07:08:49;;;;;;;8.90;8.00;;;33.10;86.90;;;;;;4983069;28;20466;-53
2021/06/18 07:11:16;;;;;;;7.67;6.97;;;33.30;86.20;;;;;;4981075;28;20469;-53
2021/06/18 07:13:43;;;;;;;10.80;7.70;;;33.80;84.30;;;;;;4984515;28;20467;-53
2021/06/18 07:16:12;;;;;;;10.13;8.50;;;34.40;84.20;;;;;;4984703;28;20466;-53
2021/06/18 07:18:39;;;;;;;8.43;7.63;;;34.70;84.70;;;;;;4989868;28;20469;-53
2021/06/18 07:21:06;;;;;;;8.73;7.93;;;34.10;84.50;;;;;;4995194;28;20889;-53
2021/06/18 07:23:33;;;;;;;10.40;7.97;;;34.00;86.60;;;;;;4985546;28;20520;-52
2021/06/18 07:26:01;;;;;;;8.00;7.30;;;34.20;83.50;;;;;;4993792;28;20524;-53
2021/06/18 07:28:28;;;;;;;8.73;7.90;;;33.60;85.20;;;;;;4982326;28;20462;-53
2021/06/18 07:30:56;;;;;;;8.43;7.70;;;34.20;84.70;;;;;;4986461;28;20474;-52
2021/06/18 07:33:22;;;;;;;7.97;7.27;;;34.60;83.70;;;;;;4988961;28;20471;-53
2021/06/18 07:35:50;;;;;;;9.47;8.60;;;35.10;85.20;;;;;;4990709;28;20482;-53
2021/06/18 07:38:17;;;;;;;8.87;7.97;;;33.40;90.10;;;;;;4993188;28;20467;-53
2021/06/18 07:40:44;;;;;;;8.97;8.07;;;33.80;86.10;;;;;;4999129;28;20840;-53
2021/06/18 07:43:13;;;;;;;9.50;8.60;;;33.50;89.20;;;;;;4993312;28;20458;-52
2021/06/18 07:45:40;;;;;;;9.13;8.30;;;33.70;86.20;;;;;;4995661;28;20470;-53
2021/06/18 07:48:09;;;;;;;11.50;8.43;;;34.10;86.80;;;;;;4989764;28;20504;-52
2021/06/18 07:50:38;;;;;;;10.30;8.60;;;33.80;89.50;;;;;;4995509;28;20493;-53
2021/06/18 07:53:05;;;;;;;9.37;8.53;;;33.80;86.90;;;;;;4995328;28;20450;-53
2021/06/18 07:55:32;;;;;;;9.60;8.80;;;34.40;85.50;;;;;;4996405;28;20539;-53
2021/06/18 07:58:00;;;;;;;9.40;8.60;;;35.00;85.30;;;;;;5004629;28;20474;-53
2021/06/18 08:00:28;;;;;;;11.20;8.10;;;34.40;83.30;;;;;;4986534;28;20458;-53
2021/06/18 08:02:56;;;;;;;9.90;8.20;;;34.20;88.50;;;;;;4985429;28;20966;-53
2021/06/18 08:05:22;;;;;;;8.23;7.63;;;34.10;86.30;;;;;;4983587;28;20891;-53
2021/06/18 08:07:50;;;;;;;13.23;9.00;;;34.00;87.50;;;;;;4984621;28;20463;-53
2021/06/18 08:10:18;;;;;;;9.50;8.70;;;33.40;87.30;;;;;;4992089;28;20469;-53
2021/06/18 08:12:47;;;;;;;9.60;8.70;;;33.00;87.20;;;;;;4983519;28;20522;-55
2021/06/18 08:15:15;;;;;;;9.87;8.87;;;32.80;90.30;;;;;;4988153;28;20490;-55
2021/06/18 08:17:43;;;;;;;9.20;8.30;;;32.70;88.60;;;;;;4988829;28;20475;-56
2021/06/18 08:20:12;;;;;;;9.50;8.63;;;33.10;87.00;;;;;;4987043;28;20534;-57
2021/06/18 08:22:39;;;;;;;9.43;8.53;;;33.60;86.30;;;;;;4994136;28;20501;-57
2021/06/18 08:25:07;;;;;;;9.60;8.60;;;33.10;87.80;;;;;;4993349;28;20486;-56
2021/06/18 08:27:34;;;;;;;12.47;9.20;;;33.60;86.60;;;;;;4986881;28;20513;-56
2021/06/18 08:30:02;;;;;;;9.00;8.13;;;33.80;87.10;;;;;;4994109;28;20980;-56
2021/06/18 08:32:29;;;;;;;10.50;9.40;;;32.80;90.60;;;;;;4986073;28;20471;-54
2021/06/18 08:34:57;;;;;;;10.63;8.40;;;31.30;92.60;;;;;;5030783;22;20500;-60
2021/06/18 08:37:24;;;;;;;9.40;8.50;;;31.50;91.80;;;;;;5036872;28;20463;-60
2021/06/18 08:39:51;;;;;;;8.80;8.07;;;32.30;92.20;;;;;;5039358;28;20460;-60
2021/06/18 08:42:18;;;;;;;9.67;8.30;;;32.00;91.60;;;;;;5042923;28;20894;-59
2021/06/18 08:44:46;;;;;;;9.57;8.67;;;30.80;91.50;;;;;;5041847;28;20534;-59
2021/06/18 08:47:14;;;;;;;8.87;8.07;;;30.20;93.50;;;;;;5049352;28;20488;-61
2021/06/18 08:49:41;;;;;;;8.73;8.00;;;30.20;92.40;;;;;;5046197;28;20871;-59
2021/06/18 08:52:10;;;;;;;9.33;8.43;;;30.70;93.80;;;;;;5051310;28;20440;-59
2021/06/18 08:54:43;;;;;;;9.90;9.07;;;30.40;92.70;;;;;;5046143;28;20534;-60
2021/06/18 08:57:12;;;;;;;8.33;7.50;;;30.00;93.10;;;;;;5041129;28;20480;-59
2021/06/18 08:59:40;;;;;;;9.20;8.30;;;29.90;92.90;;;;;;5039636;28;20452;-60
2021/06/18 09:02:07;;;;;;;8.83;7.93;;;30.40;93.00;;;;;;5035227;28;20458;-59
2021/06/18 09:04:54;;;;;;;8.30;7.43;;;31.40;90.50;;;;;;5044454;28;20529;-59
2021/06/18 09:07:22;;;;;;;8.80;8.00;;;32.50;90.50;;;;;;5039896;28;20958;-59
2021/06/18 09:09:49;;;;;;;10.97;7.73;;;32.60;88.70;;;;;;5040261;28;20556;-59
2021/06/18 09:12:16;;;;;;;8.30;7.60;;;32.70;89.50;;;;;;5043784;28;20445;-59
2021/06/18 09:14:43;;;;;;;9.03;8.30;;;31.90;90.40;;;;;;5046317;28;20491;-59
2021/06/18 09:17:16;;;;;;;10.83;8.20;;;31.90;90.70;;;;;;5039379;28;20468;-60
2021/06/18 09:19:46;;;;;;;9.17;8.00;;;32.60;89.10;;;;;;5041512;28;20507;-60
2021/06/18 09:22:15;;;;;;;10.70;8.10;;;32.40;91.70;;;;;;5048895;28;20585;-59
2021/06/18 09:24:45;;;;;;;9.50;7.90;;;32.60;87.60;;;;;;5040885;28;20487;-60
2021/06/18 09:27:13;;;;;;;9.77;8.63;;;32.30;90.90;;;;;;5038654;28;20815;-60
2021/06/18 09:29:42;;;;;;;8.80;8.00;;;32.30;86.90;;;;;;5044856;28;20501;-60
2021/06/18 09:32:11;;;;;;;9.13;8.43;;;31.20;91.00;;;;;;5048274;28;20521;-59
2021/06/18 09:34:46;;;;;;;8.87;8.00;;;31.10;90.00;;;;;;5046315;28;20483;-60
2021/06/18 09:37:16;;;;;;;9.13;8.30;;;32.10;90.50;;;;;;5049836;28;20496;-59
2021/06/18 09:40:10;;;;;;;8.33;7.60;;;32.50;88.80;;;;;;5038988;28;20461;-62
2021/06/18 09:42:47;;;;;;;8.67;7.97;;;33.40;86.30;;;;;;5033803;28;20440;-60
2021/06/18 09:45:16;;;;;;;9.27;8.43;;;34.40;85.70;;;;;;5042922;28;20518;-60
2021/06/18 09:47:43;;;;;;;10.03;9.07;;;33.60;86.20;;;;;;5048959;28;20533;-59
2021/06/18 09:50:28;;;;;;;9.40;8.60;;;33.90;83.50;;;;;;5041484;28;20464;-60
2021/06/18 09:53:14;;;;;;;9.63;8.70;;;33.80;82.40;;;;;;5042111;28;20471;-61
2021/06/18 09:55:43;;;;;;;8.50;7.80;;;33.80;84.90;;;;;;5038037;28;20492;-60
2021/06/18 09:58:11;;;;;;;15.30;8.97;;;34.00;88.00;;;;;;5050501;28;20493;-61
2021/06/18 10:00:38;;;;;;;10.90;8.57;;;34.20;87.20;;;;;;5038487;28;20559;-59
2021/06/18 10:03:10;;;;;;;9.97;8.97;;;33.20;88.60;;;;;;5045296;28;20451;-60
2021/06/18 10:05:39;;;;;;;10.90;8.10;;;32.20;90.10;;;;;;5032960;28;20562;-59
2021/06/18 10:08:09;;;;;;;8.83;8.13;;;32.20;87.60;;;;;;5029749;28;20208;-58
2021/06/18 10:10:38;;;;;;;10.13;9.13;;;32.60;90.50;;;;;;5030882;28;20466;-58
2021/06/18 10:13:07;;;;;;;9.50;8.47;;;32.30;90.30;;;;;;5035927;28;20468;-58
2021/06/18 10:15:38;;;;;;;9.77;8.83;;;32.90;89.70;;;;;;5035789;28;20529;-59
2021/06/18 10:18:10;;;;;;;9.60;8.70;;;33.60;86.30;;;;;;5033565;28;20526;-59
2021/06/18 10:20:37;;;;;;;11.07;8.63;;;33.00;87.70;;;;;;5040140;28;20506;-59
2021/06/18 10:23:09;;;;;;;10.23;9.20;;;33.60;85.80;;;;;;5027641;28;20541;-58
2021/06/18 10:25:39;;;;;;;9.40;8.60;;;33.80;87.30;;;;;;5024896;28;20960;-58
2021/06/18 10:28:09;;;;;;;9.17;8.27;;;33.00;86.10;;;;;;5031628;28;21030;-60
2021/06/18 10:30:38;;;;;;;9.50;8.47;;;33.40;86.00;;;;;;5026919;28;20950;-60
2021/06/18 10:33:37;;;;;;;9.77;8.87;;;33.80;83.40;;;;;;5029494;28;20464;-60
2021/06/18 10:36:22;;;;;;;10.67;9.57;;;34.20;83.20;;;;;;5036446;28;20492;-60
2021/06/18 10:39:13;;;;;;;9.07;8.17;;;33.60;86.40;;;;;;5031257;28;20456;-61
2021/06/18 10:41:49;;;;;;;10.20;8.97;;;33.60;85.50;;;;;;5018521;28;20537;-60
2021/06/18 10:44:49;;;;;;;9.23;8.43;;;33.60;84.60;;;;;;5031759;28;20468;-61
2021/06/18 10:47:44;;;;;;;10.27;9.27;;;33.40;90.10;;;;;;5021669;28;20507;-60
2021/06/18 10:50:34;;;;;;;9.40;8.40;;;33.20;90.40;;;;;;5029720;28;20531;-60
2021/06/18 10:53:19;;;;;;;9.40;8.60;;;32.70;90.50;;;;;;5031295;28;20453;-60
2021/06/18 10:55:48;;;;;;;9.83;9.03;;;32.30;91.90;;;;;;5031802;28;20492;-60
2021/06/18 10:58:15;;;;;;;10.03;9.13;;;31.80;91.00;;;;;;5031370;28;20527;-59
2021/06/18 11:00:43;;;;;;;10.27;9.40;;;31.70;91.90;;;;;;5030851;28;20460;-60
2021/06/18 11:03:13;;;;;;;9.80;8.90;;;32.10;90.00;;;;;;5031150;28;20445;-59
2021/06/18 11:05:41;;;;;;;9.50;8.70;;;32.50;90.20;;;;;;5031078;28;20530;-59
2021/06/18 11:08:25;;;;;;;9.90;9.10;;;31.60;90.90;;;;;;5030465;28;20889;-60
2021/06/18 11:10:57;;;;;;;12.20;8.90;;;31.20;92.10;;;;;;5031782;28;20448;-59
2021/06/18 11:13:24;;;;;;;10.00;9.10;;;31.00;92.70;;;;;;5026220;28;20503;-61
2021/06/18 11:15:53;;;;;;;10.10;9.20;;;31.10;94.10;;;;;;5031161;28;20488;-59
2021/06/18 11:18:32;;;;;;;10.63;8.37;;;31.10;91.60;;;;;;5031062;28;20468;-59
2021/06/18 11:21:06;;;;;;;13.40;8.70;;;31.40;90.40;;;;;;5029247;28;20475;-60
2021/06/18 11:23:38;;;;;;;9.67;8.80;;;31.40;90.10;;;;;;5033800;28;20549;-60
2021/06/18 11:26:10;;;;;;;11.10;7.83;;;31.90;90.40;;;;;;5033309;28;20986;-60
2021/06/18 11:28:46;;;;;;;10.30;9.13;;;32.10;88.30;;;;;;5042440;28;20970;-59
2021/06/18 11:31:21;;;;;;;9.87;8.97;;;32.30;89.80;;;;;;5050948;28;20895;-60
2021/06/18 11:33:56;;;;;;;9.83;8.93;;;32.20;90.00;;;;;;5033861;28;21192;-59
2021/06/18 11:36:48;;;;;;;12.77;8.73;;;32.10;87.70;;;;;;5031162;28;20480;-57
2021/06/18 11:39:21;;;;;;;9.60;8.70;;;32.50;88.60;;;;;;5029493;28;20462;-57
2021/06/18 11:41:57;;;;;;;9.37;8.50;;;32.40;91.00;;;;;;5030690;28;20445;-58
2021/06/18 11:44:26;;;;;;;8.30;7.50;;;32.10;91.40;;;;;;5031010;28;20464;-57
2021/06/18 11:46:57;;;;;;;8.60;7.80;;;31.70;90.90;;;;;;5031113;28;20449;-57
2021/06/18 11:49:32;;;;;;;9.47;7.93;;;31.70;87.20;;;;;;5031161;28;20445;-57
2021/06/18 11:52:11;;;;;;;14.97;8.00;;;31.90;85.10;;;;;;5030614;28;20519;-59
2021/06/18 11:54:41;;;;;;;9.27;8.07;;;31.50;85.80;;;;;;5030662;28;21028;-59
2021/06/18 11:57:12;;;;;;;8.63;7.93;;;31.60;88.90;;;;;;5030541;28;20483;-59
2021/06/18 11:59:41;;;;;;;9.03;8.20;;;31.70;90.70;;;;;;5030991;28;20448;-59
2021/06/18 12:02:21;;;;;;;9.10;8.30;;;31.20;92.00;;;;;;5031852;28;20506;-59
2021/06/18 12:05:05;;;;;;;9.17;8.27;;;31.20;90.80;;;;;;5034693;28;20468;-60
2021/06/18 12:07:33;;;;;;;7.67;7.00;;;30.90;88.50;;;;;;5034548;28;20487;-59
2021/06/18 12:10:01;;;;;;;8.23;7.43;;;31.20;85.00;;;;;;5034498;28;20444;-60
2021/06/18 12:12:28;;;;;;;9.50;8.27;;;31.60;91.70;;;;;;5034144;28;20882;-59
2021/06/18 12:14:57;;;;;;;9.07;8.27;;;31.20;88.00;;;;;;5034410;28;20532;-60
2021/06/18 12:17:26;;;;;;;8.20;7.40;;;31.20;84.10;;;;;;5034938;28;20491;-60
2021/06/18 12:19:54;;;;;;;7.67;6.80;;;31.40;87.50;;;;;;5035132;28;20452;-59
2021/06/18 12:22:23;;;;;;;9.43;8.07;;;31.50;88.30;;;;;;5034269;28;20449;-58
2021/06/18 12:24:52;;;;;;;8.40;7.70;;;31.40;85.10;;;;;;5034336;28;20977;-60
2021/06/18 12:27:21;;;;;;;8.90;8.10;;;31.50;86.50;;;;;;5033847;28;20445;-60
2021/06/18 12:29:52;;;;;;;7.87;7.17;;;31.80;87.90;;;;;;5024965;28;20484;-59
2021/06/18 12:32:20;;;;;;;8.93;8.23;;;32.10;82.90;;;;;;5033334;28;20456;-60
2021/06/18 12:34:51;;;;;;;8.13;7.30;;;32.30;82.80;;;;;;5033748;28;20908;-60
2021/06/18 12:37:21;;;;;;;8.77;8.07;;;32.20;84.90;;;;;;5033573;28;20590;-60
2021/06/18 12:39:54;;;;;;;8.27;7.53;;;31.60;89.40;;;;;;5034015;28;20491;-60
2021/06/18 12:42:22;;;;;;;8.60;7.80;;;31.50;86.40;;;;;;5033984;28;20498;-60
2021/06/18 12:45:09;;;;;;;8.73;7.93;;;31.60;84.90;;;;;;5033485;28;20468;-59
2021/06/18 12:47:37;;;;;;;9.43;8.20;;;31.30;86.20;;;;;;5033791;28;20528;-61
2021/06/18 12:50:28;;;;;;;8.20;7.50;;;31.10;84.80;;;;;;5033315;28;20460;-60
2021/06/18 12:52:56;;;;;;;9.10;8.07;;;31.30;83.80;;;;;;5033815;28;20456;-60
2021/06/18 12:55:29;;;;;;;8.60;7.70;;;31.10;86.20;;;;;;5033642;28;20897;-60
2021/06/18 12:58:13;;;;;;;8.50;7.80;;;30.60;88.00;;;;;;5033814;28;20488;-60
2021/06/18 13:00:48;;;;;;;8.67;7.87;;;30.70;87.80;;;;;;5033259;28;20452;-60